Garden City, Louisiana
Current Conditions -  °F | °C
As of 3:55 AM on Friday 19 Dec 2014 (Local Time) from KPTN Reporting Station
Overcast Overcast  
Wind Chill: 57°   Ceiling: 400
Heat Index: 57°   Visibility: 5mi
Dew Point: 55°   Wind: 8mph
Humidity: 94%   Direction: 80°E
Pressure: 30.03"   Gusts: NA
Location:  29.77°N, 91.47°W
Report Text: KPTN 190955Z AUTO 08007KT 5SM BKN004 OVC016 14/13 A3003 RMK AO1
Loading
Personal Weather Stations






























Interactive Weather Map New forecast layout! Learn more

10-Day Weather Forecast

Advertisements
Track Severe Weather on mobile